Skip Navigation Links Skip Navigation Links

Current Weather

Ronald Reagan Washington National, Washington

For information only: do not use for flight planning or navigation.
Latest weather
Observation time Saturday, October 21, 2017 2:52 PM EDT
Local time Saturday, October 21, 2017 3:37 PM EDT
Flight conditions Visual Meteorological Conditions
Winds
Wind direction variable
Wind speed 5 mph
Visibility 10 mi.
Sky condition
Ceiling 25,000 ft. broken clouds
Cloud layer broken clouds 25,000 ft.
Temperature 77°F
Dewpoint 43°F
Altimeter 30.31 in.Hg
Derived measurements
Relative humidity 30%
Heat index 77°F
Density altitude 873 ft.
Sea-level pressure 30.31 in.Hg
Remarks
Automated weather observing station with precipitation discriminator.
METAR KDCA 211852Z VRB04KT 10SM BKN250 25/06 A3031 RMK AO2 SLP265 T02500061

Settings

Location code

InnerDrive.Weather 4.0.6144.1 Release CLR 4.0.30319.36366
Copyright ©2015 Inner Drive Technology. All rights reserved. Portions Copyright ©1986-2015 David Braverman.

Find weather

Site navigation


Skip Navigation Links

Place info

Page info

PayPal - The safer, easier way to pay online!

Return home.

Copyright ©2017 Inner Drive Technology. Purveyors of fine, hand-crafted computer software. Page printed 2017-10-21T19:37:04 UTC.